PABR METAR and TAF weather

Enter ICAO airport designator
Station Type Date Time Source
PABR METAR 2018/12/15 02:00 UTC NOAA

PABR 150200Z 07006KT 7SM OVC027 M19/M22 A2955 RMK T11941217 VIA AUTODIAL


Station Type Date Time Source
PABR Decoded METAR 2018/12/15 02:00 UTC NOAA

POST ROGERS MEMORIAL AIRPORT, AK, United States (PABR) 71-17N 156-46W 10M
Dec 14, 2018 - 09:00 PM EST / 2018.12.15 0200 UTC
Wind: from the ENE (070 degrees) at 7 MPH (6 KT):0
Visibility: 7 mile(s):0
Sky conditions: overcast
Temperature: -2.9 F (-19.4 C)
Windchill: -16 F (-27 C):2
Dew Point: -7.1 F (-21.7 C)
Relative Humidity: 81%
Pressure (altimeter): 29.55 in. Hg (1000 hPa)
ob: PABR 150200Z 07006KT 7SM OVC027 M19/M22 A2955 RMK T11941217 VIA AUTODIAL
cycle: 2

Station Type Date Time Source
PABR TAF 2018/12/14 18:42 UTC NOAA

TAF PABR 141739Z 1418/1518 07010KT 3SM -SN BR BKN035
FM142100 06009KT 4SM -SN BR OVC025


Example: see airport list